Terminal Aerodrome Forecast
Issued by NWS

Home | Current Version | Previous Version | Text Only | Print | Product List | Glossary On
Versions: 1 2 3 4 5 6 7 8 9 10 11 12 13 14 15 16 17 18 19 20 21
262
FTUS43 KDTX 281402 AAA
TAFMBS
TAF AMD
KMBS 281402Z 2814/2912 04014KT 2SM BR BKN005 OVC012
     FM281600 04014KT 5SM BR SCT005 OVC012
     FM281800 04012KT P6SM OVC024
     FM282100 05006KT P6SM SKC=

USA.gov is the U.S. government's official web portal to all federal, state and local government web resources and services.